Time;durP1;ratioP1;P1;durP2;ratioP2;P2;SDS_P1;SDS_P2;PMS_P1;PMS_P2;Temp;Humidity;BMP_temperature;BMP_pressure;BME280_temperature;BME280_humidity;BME280_pressure;Samples;Min_cycle;Max_cycle;Signal;HPM_P1;HPM_P2
2021/05/24 00:00:22;;;;;;;5.05;1.80;;;16.90;55.00;;;;;;5061348;28;20043;-71
2021/05/24 00:02:49;;;;;;;3.42;1.75;;;16.80;55.20;;;;;;5059141;28;20024;-71
2021/05/24 00:05:27;;;;;;;4.00;1.58;;;16.80;55.30;;;;;;5062574;28;20040;-70
2021/05/24 00:07:53;;;;;;;3.00;1.30;;;16.70;55.50;;;;;;5048507;28;20127;-71
2021/05/24 00:10:27;;;;;;;3.63;1.92;;;16.70;55.40;;;;;;5055030;28;20132;-71
2021/05/24 00:12:55;;;;;;;4.70;1.60;;;16.60;55.60;;;;;;5054952;28;20033;-71
2021/05/24 00:15:33;;;;;;;5.00;1.85;;;16.70;56.00;;;;;;5050099;28;20070;-71
2021/05/24 00:17:59;;;;;;;2.45;1.17;;;16.60;56.10;;;;;;5056586;28;20032;-71
2021/05/24 00:20:29;;;;;;;4.85;1.55;;;16.80;56.10;;;;;;5065748;28;20052;-71
2021/05/24 00:22:56;;;;;;;5.47;1.75;;;16.70;56.20;;;;;;5072819;28;20127;-71
2021/05/24 00:25:22;;;;;;;3.50;1.58;;;16.70;56.20;;;;;;5055927;28;20033;-71
2021/05/24 00:27:48;;;;;;;5.07;1.45;;;16.70;56.20;;;;;;5066320;28;20036;-72
2021/05/24 00:30:16;;;;;;;3.17;1.55;;;16.70;56.20;;;;;;5053248;28;20471;-71
2021/05/24 00:32:42;;;;;;;3.97;1.60;;;16.70;56.10;;;;;;5053416;28;20029;-72
2021/05/24 00:35:09;;;;;;;4.55;1.77;;;16.70;56.10;;;;;;5056216;28;20052;-71
2021/05/24 00:37:34;;;;;;;4.63;1.50;;;16.80;56.20;;;;;;5068152;28;20412;-71
2021/05/24 00:40:00;;;;;;;3.83;1.38;;;16.80;56.10;;;;;;5057324;28;20135;-72
2021/05/24 00:42:26;;;;;;;3.88;1.48;;;16.80;56.00;;;;;;5057774;28;20111;-71
2021/05/24 00:44:52;;;;;;;2.70;1.52;;;16.80;56.20;;;;;;5059336;28;20091;-71
2021/05/24 00:47:18;;;;;;;4.00;1.35;;;16.80;56.20;;;;;;5052531;28;20497;-71
2021/05/24 00:49:44;;;;;;;3.83;1.55;;;16.80;56.30;;;;;;5061105;28;20485;-72
2021/05/24 00:52:11;;;;;;;4.00;1.63;;;16.70;56.40;;;;;;5060303;28;20029;-71
2021/05/24 00:54:37;;;;;;;4.22;1.50;;;16.80;56.50;;;;;;5060605;28;20029;-71
2021/05/24 00:57:04;;;;;;;5.38;1.50;;;16.80;56.40;;;;;;5053901;28;20033;-71
2021/05/24 00:59:30;;;;;;;4.63;1.35;;;16.80;56.40;;;;;;5052023;28;20394;-71
2021/05/24 01:01:56;;;;;;;3.58;1.40;;;16.80;56.50;;;;;;5053307;28;20051;-72
2021/05/24 01:04:22;;;;;;;4.35;1.63;;;16.80;56.60;;;;;;5059496;28;20029;-71
2021/05/24 01:06:48;;;;;;;4.13;1.42;;;16.90;56.60;;;;;;5058486;28;20028;-71
2021/05/24 01:09:17;;;;;;;4.90;1.73;;;16.90;56.70;;;;;;5062628;28;20494;-71
2021/05/24 01:11:43;;;;;;;2.80;1.17;;;16.90;56.90;;;;;;5059867;28;20340;-72
2021/05/24 01:14:09;;;;;;;3.58;1.67;;;16.80;56.90;;;;;;5054060;28;20029;-70
2021/05/24 01:16:35;;;;;;;5.63;1.50;;;16.80;57.00;;;;;;5056400;28;20028;-72
2021/05/24 01:19:00;;;;;;;4.25;1.38;;;16.80;57.00;;;;;;5067533;28;20534;-71
2021/05/24 01:21:26;;;;;;;2.75;1.20;;;16.80;57.40;;;;;;5065829;28;20048;-71
2021/05/24 01:23:52;;;;;;;5.57;1.55;;;16.70;57.50;;;;;;5051019;28;20033;-71
2021/05/24 01:26:19;;;;;;;7.75;1.65;;;16.80;57.40;;;;;;5063458;28;20471;-71
2021/05/24 01:28:46;;;;;;;3.13;1.40;;;16.80;57.40;;;;;;5064906;28;20028;-72
2021/05/24 01:31:12;;;;;;;3.80;1.15;;;16.80;57.40;;;;;;5052379;28;20127;-71
2021/05/24 01:33:38;;;;;;;3.70;1.38;;;16.80;57.50;;;;;;5060682;28;20041;-71
2021/05/24 01:36:07;;;;;;;5.63;1.83;;;16.80;57.50;;;;;;5057542;28;20037;-71
2021/05/24 01:38:36;;;;;;;8.55;2.55;;;16.80;57.60;;;;;;5050078;28;20035;-71
2021/05/24 01:41:03;;;;;;;2.50;1.20;;;16.70;57.70;;;;;;5052540;28;20029;-71
2021/05/24 01:43:29;;;;;;;2.95;1.50;;;16.70;57.80;;;;;;5062910;28;20029;-71
2021/05/24 01:45:55;;;;;;;5.47;1.60;;;16.70;57.80;;;;;;5056368;28;20031;-71
2021/05/24 01:48:21;;;;;;;2.97;1.42;;;16.70;58.00;;;;;;5061232;28;20102;-71
2021/05/24 01:50:47;;;;;;;2.15;1.40;;;16.70;58.30;;;;;;5062707;28;20460;-71
2021/05/24 01:53:13;;;;;;;4.68;1.50;;;16.60;58.40;;;;;;5052627;28;20029;-71
2021/05/24 01:55:39;;;;;;;3.42;1.27;;;16.60;58.60;;;;;;5054552;28;20025;-71
2021/05/24 01:58:06;;;;;;;2.55;1.23;;;16.60;58.70;;;;;;5050316;28;20033;-71
2021/05/24 02:00:32;;;;;;;2.65;1.30;;;16.60;58.80;;;;;;5061749;28;20050;-71
2021/05/24 02:02:58;;;;;;;5.55;1.40;;;16.50;58.90;;;;;;5058432;28;20041;-71
2021/05/24 02:05:26;;;;;;;2.13;1.10;;;16.50;59.00;;;;;;5064164;28;20049;-71
2021/05/24 02:07:53;;;;;;;4.65;1.98;;;16.60;59.00;;;;;;5058363;28;20447;-71
2021/05/24 02:10:24;;;;;;;5.63;2.00;;;16.60;58.90;;;;;;5062295;28;20052;-71
2021/05/24 02:12:51;;;;;;;4.15;1.38;;;16.50;59.10;;;;;;5057647;28;20032;-71
2021/05/24 02:15:19;;;;;;;3.63;1.60;;;16.60;59.30;;;;;;5060887;28;20056;-71
2021/05/24 02:17:45;;;;;;;2.83;1.20;;;16.50;59.40;;;;;;5055856;28;20033;-71
2021/05/24 02:20:12;;;;;;;3.38;1.40;;;16.50;59.60;;;;;;5050979;28;20398;-71
2021/05/24 02:22:38;;;;;;;6.78;1.38;;;16.50;59.60;;;;;;5055764;28;20045;-70
2021/05/24 02:25:05;;;;;;;3.20;1.40;;;16.50;59.60;;;;;;5052603;28;20944;-70
2021/05/24 02:27:31;;;;;;;3.67;1.60;;;16.50;59.60;;;;;;5060015;28;20037;-70
2021/05/24 02:29:57;;;;;;;3.97;1.38;;;16.50;59.50;;;;;;5054042;28;20044;-71
2021/05/24 02:32:23;;;;;;;6.35;1.90;;;16.50;59.50;;;;;;5053541;28;20517;-70
2021/05/24 02:34:49;;;;;;;3.25;1.40;;;16.60;59.50;;;;;;5020025;28;20037;-71
2021/05/24 02:37:15;;;;;;;3.10;1.52;;;16.50;59.50;;;;;;5065426;28;20511;-70
2021/05/24 02:39:41;;;;;;;2.50;1.35;;;16.50;59.60;;;;;;5052790;28;20033;-70
2021/05/24 02:42:06;;;;;;;3.72;1.63;;;16.50;59.70;;;;;;5060269;28;20029;-70
2021/05/24 02:44:32;;;;;;;8.40;2.10;;;16.40;59.80;;;;;;5054831;28;20104;-70
2021/05/24 02:46:58;;;;;;;5.30;1.50;;;16.40;60.00;;;;;;5052202;28;20044;-71
2021/05/24 02:49:23;;;;;;;2.85;1.50;;;16.40;60.10;;;;;;5063076;28;20055;-70
2021/05/24 02:51:49;;;;;;;4.55;1.50;;;16.30;60.20;;;;;;5053353;28;20033;-71
2021/05/24 02:54:15;;;;;;;3.58;1.73;;;16.30;60.50;;;;;;5061264;28;20592;-70
2021/05/24 02:56:40;;;;;;;3.90;1.65;;;16.30;60.60;;;;;;5067630;28;20028;-70
2021/05/24 02:59:06;;;;;;;3.35;1.20;;;16.20;60.80;;;;;;5049347;28;20433;-71
2021/05/24 03:01:33;;;;;;;1.85;1.13;;;16.20;60.80;;;;;;5051486;28;20033;-70
2021/05/24 03:04:01;;;;;;;3.90;1.80;;;16.30;60.80;;;;;;5058588;28;20307;-70
2021/05/24 03:06:27;;;;;;;3.92;1.33;;;16.30;60.90;;;;;;5061994;28;20029;-71
2021/05/24 03:08:53;;;;;;;3.28;1.63;;;16.20;61.00;;;;;;5049681;28;20098;-70
2021/05/24 03:11:20;;;;;;;3.92;1.50;;;16.20;61.30;;;;;;5055907;28;20112;-71
2021/05/24 03:13:45;;;;;;;3.97;1.30;;;16.10;61.50;;;;;;5056019;28;20107;-71
2021/05/24 03:16:11;;;;;;;4.25;1.63;;;16.10;61.50;;;;;;5062121;28;20119;-71
2021/05/24 03:18:37;;;;;;;3.58;1.83;;;16.20;61.50;;;;;;5050510;28;20103;-71
2021/05/24 03:21:03;;;;;;;6.53;1.77;;;16.20;61.40;;;;;;5050100;28;20064;-71
2021/05/24 03:23:28;;;;;;;4.13;1.50;;;16.30;61.50;;;;;;5050885;28;20032;-71
2021/05/24 03:25:54;;;;;;;2.25;1.20;;;16.20;61.50;;;;;;5050418;28;20032;-71
2021/05/24 03:28:20;;;;;;;4.57;1.65;;;16.30;61.70;;;;;;5052811;28;20387;-71
2021/05/24 03:30:46;;;;;;;9.73;2.08;;;16.10;61.90;;;;;;5060513;28;20174;-70
2021/05/24 03:33:11;;;;;;;5.03;1.52;;;16.10;62.20;;;;;;5064263;28;20051;-71
2021/05/24 03:35:37;;;;;;;4.40;1.50;;;16.00;62.40;;;;;;5055284;28;20466;-70
2021/05/24 03:38:03;;;;;;;2.03;1.20;;;16.00;62.50;;;;;;5061408;28;20423;-70
2021/05/24 03:40:28;;;;;;;4.78;1.15;;;16.00;62.40;;;;;;5068710;28;20107;-71
2021/05/24 03:42:54;;;;;;;3.42;1.50;;;16.10;62.50;;;;;;5054293;28;20037;-71
2021/05/24 03:45:22;;;;;;;2.70;1.20;;;16.10;62.50;;;;;;5059504;28;20042;-70
2021/05/24 03:47:49;;;;;;;3.85;1.23;;;16.10;62.40;;;;;;5059345;28;20059;-70
2021/05/24 03:50:15;;;;;;;3.85;1.42;;;16.10;62.30;;;;;;5055377;28;20033;-70
2021/05/24 03:52:40;;;;;;;3.15;1.55;;;16.00;62.40;;;;;;5048885;28;20547;-70
2021/05/24 03:55:07;;;;;;;6.47;1.58;;;16.00;62.60;;;;;;5068391;28;20059;-70
2021/05/24 03:57:33;;;;;;;5.43;1.95;;;16.00;62.70;;;;;;5053354;28;20155;-70
2021/05/24 03:59:59;;;;;;;5.15;1.63;;;16.00;62.70;;;;;;5047895;28;20088;-70
2021/05/24 04:02:24;;;;;;;4.05;1.42;;;16.00;62.90;;;;;;5050992;28;20039;-70
2021/05/24 04:04:50;;;;;;;4.35;1.60;;;15.90;63.00;;;;;;5048484;28;20032;-71
2021/05/24 04:07:23;;;;;;;3.63;1.73;;;16.00;63.10;;;;;;5049187;28;20033;-71
2021/05/24 04:09:49;;;;;;;3.25;1.67;;;16.00;63.00;;;;;;5049124;28;20036;-71
2021/05/24 04:12:15;;;;;;;4.40;1.90;;;16.00;62.90;;;;;;5062243;28;20424;-70
2021/05/24 04:14:42;;;;;;;4.32;1.40;;;15.90;63.10;;;;;;5059313;28;20029;-70
2021/05/24 04:17:09;;;;;;;2.78;1.50;;;15.90;63.10;;;;;;5055319;28;20443;-70
2021/05/24 04:19:35;;;;;;;3.72;1.60;;;15.90;63.30;;;;;;5056369;28;20053;-70
2021/05/24 04:22:01;;;;;;;4.10;1.60;;;15.90;63.30;;;;;;5053384;28;20126;-70
2021/05/24 04:24:26;;;;;;;3.10;1.60;;;15.90;63.40;;;;;;5051518;28;20069;-70
2021/05/24 04:26:52;;;;;;;3.22;1.40;;;15.90;63.40;;;;;;5050772;28;20029;-70
2021/05/24 04:29:18;;;;;;;4.55;1.50;;;15.90;63.50;;;;;;5047509;28;20037;-71
2021/05/24 04:31:43;;;;;;;6.00;1.50;;;15.90;63.40;;;;;;5053761;28;20037;-71
2021/05/24 04:34:09;;;;;;;3.05;1.40;;;16.00;63.40;;;;;;5056658;28;20021;-70
2021/05/24 04:36:35;;;;;;;2.88;1.50;;;15.90;63.50;;;;;;5051312;28;20078;-71
2021/05/24 04:39:00;;;;;;;4.63;2.20;;;15.90;63.50;;;;;;5069141;28;20032;-70
2021/05/24 04:41:26;;;;;;;5.40;1.50;;;15.90;63.60;;;;;;5056260;28;20447;-70
2021/05/24 04:43:56;;;;;;;4.03;1.60;;;15.90;63.70;;;;;;5030295;28;20041;-71
2021/05/24 04:46:22;;;;;;;2.45;1.60;;;15.90;63.80;;;;;;5063979;28;20029;-70
2021/05/24 04:48:47;;;;;;;1.80;1.17;;;15.90;63.90;;;;;;5056860;28;20039;-70
2021/05/24 04:51:13;;;;;;;2.88;1.40;;;15.90;64.10;;;;;;5046360;28;20076;-71
2021/05/24 04:53:39;;;;;;;3.40;1.30;;;15.90;64.30;;;;;;5054694;28;20029;-71
2021/05/24 04:56:04;;;;;;;2.78;1.30;;;15.80;64.40;;;;;;5048835;28;20033;-70
2021/05/24 04:58:30;;;;;;;2.88;1.52;;;15.90;64.50;;;;;;5043885;28;20078;-71
2021/05/24 05:00:57;;;;;;;2.53;1.35;;;15.90;64.40;;;;;;5051956;28;20036;-70
2021/05/24 05:03:23;;;;;;;3.15;1.63;;;16.00;64.50;;;;;;5048524;28;20043;-70
2021/05/24 05:05:49;;;;;;;2.50;1.45;;;15.90;64.50;;;;;;5053914;28;20033;-70
2021/05/24 05:08:14;;;;;;;3.90;1.58;;;16.00;64.70;;;;;;5068775;28;20072;-70
2021/05/24 05:10:40;;;;;;;3.17;1.45;;;16.00;64.60;;;;;;5063552;28;20530;-70
2021/05/24 05:13:06;;;;;;;3.92;1.77;;;16.10;64.70;;;;;;5066571;28;20043;-70
2021/05/24 05:15:32;;;;;;;3.75;1.60;;;16.00;64.70;;;;;;5069972;28;20478;-70
2021/05/24 05:17:58;;;;;;;3.13;1.40;;;16.00;64.80;;;;;;5058261;28;20029;-70
2021/05/24 05:20:24;;;;;;;4.03;1.50;;;16.00;65.00;;;;;;5053089;28;20059;-70
2021/05/24 05:22:49;;;;;;;3.97;1.42;;;16.00;65.00;;;;;;5042330;28;20486;-70
2021/05/24 05:25:16;;;;;;;3.90;1.50;;;16.00;65.00;;;;;;5069847;28;20876;-70
2021/05/24 05:27:41;;;;;;;3.70;1.38;;;16.00;64.90;;;;;;5069779;28;20123;-70
2021/05/24 05:30:08;;;;;;;3.72;1.40;;;16.10;64.80;;;;;;5060918;28;20048;-71
2021/05/24 05:32:34;;;;;;;3.95;1.33;;;16.10;64.90;;;;;;5047621;28;20539;-70
2021/05/24 05:35:00;;;;;;;3.15;1.35;;;16.20;64.80;;;;;;5057282;28;20029;-70
2021/05/24 05:37:25;;;;;;;3.83;1.67;;;16.20;64.70;;;;;;5054002;28;20032;-70
2021/05/24 05:39:55;;;;;;;2.25;1.20;;;16.30;64.60;;;;;;5058244;28;20082;-70
2021/05/24 05:42:21;;;;;;;6.55;1.90;;;16.30;64.50;;;;;;5069955;28;20020;-71
2021/05/24 05:44:48;;;;;;;5.15;1.60;;;16.40;64.60;;;;;;5060244;28;20029;-70
2021/05/24 05:47:14;;;;;;;2.75;1.23;;;16.40;64.60;;;;;;5056909;28;20048;-71
2021/05/24 05:49:40;;;;;;;3.30;1.30;;;16.50;64.50;;;;;;5055139;28;20029;-70
2021/05/24 05:52:06;;;;;;;4.15;1.30;;;16.60;64.30;;;;;;5052249;28;20344;-71
2021/05/24 05:54:31;;;;;;;3.10;1.30;;;16.60;64.20;;;;;;5062937;28;20110;-70
2021/05/24 05:56:57;;;;;;;9.27;1.58;;;16.60;64.00;;;;;;5070285;28;20033;-71
2021/05/24 05:59:23;;;;;;;3.70;1.65;;;16.70;63.80;;;;;;5050971;28;20110;-71
2021/05/24 06:01:48;;;;;;;5.55;1.50;;;16.70;63.80;;;;;;5052722;28;20029;-70
2021/05/24 06:04:14;;;;;;;4.63;1.30;;;16.80;63.50;;;;;;5051519;28;20036;-70
2021/05/24 06:06:40;;;;;;;4.18;2.00;;;16.80;63.60;;;;;;5056322;28;20052;-70
2021/05/24 06:09:06;;;;;;;4.55;1.73;;;16.90;63.60;;;;;;5063005;28;20548;-71
2021/05/24 06:11:31;;;;;;;4.32;1.30;;;16.90;63.30;;;;;;5065360;28;20040;-71
2021/05/24 06:13:57;;;;;;;3.85;1.35;;;16.90;63.20;;;;;;5058186;28;20047;-71
2021/05/24 06:16:22;;;;;;;3.72;1.45;;;16.90;63.30;;;;;;5062677;28;20146;-71
2021/05/24 06:18:48;;;;;;;2.92;1.10;;;17.00;63.40;;;;;;5050203;28;20152;-71
2021/05/24 06:21:15;;;;;;;4.32;1.63;;;17.00;63.10;;;;;;5051387;28;20033;-71
2021/05/24 06:23:45;;;;;;;3.70;1.50;;;17.00;63.20;;;;;;5059374;28;20028;-72
2021/05/24 06:26:11;;;;;;;2.97;1.40;;;17.00;63.10;;;;;;5064961;28;20505;-71
2021/05/24 06:28:37;;;;;;;5.85;1.35;;;17.20;62.70;;;;;;5068026;28;20028;-71
2021/05/24 06:31:02;;;;;;;3.88;1.50;;;17.20;62.70;;;;;;5053020;28;20116;-71
2021/05/24 06:33:28;;;;;;;3.55;1.10;;;17.20;62.40;;;;;;5052169;28;20478;-71
2021/05/24 06:35:54;;;;;;;3.22;1.30;;;17.20;62.60;;;;;;5056867;28;20119;-71
2021/05/24 06:38:19;;;;;;;4.35;1.50;;;17.30;62.70;;;;;;5061420;28;20952;-71
2021/05/24 06:40:45;;;;;;;4.20;1.52;;;17.40;62.30;;;;;;5044695;28;20432;-71
2021/05/24 06:43:11;;;;;;;9.65;1.38;;;17.40;61.50;;;;;;5050458;28;20025;-71
2021/05/24 06:45:36;;;;;;;3.30;1.40;;;17.50;61.40;;;;;;5060424;28;20032;-72
2021/05/24 06:48:02;;;;;;;3.58;1.77;;;17.50;61.30;;;;;;5059001;28;20489;-72
2021/05/24 06:50:28;;;;;;;4.88;1.60;;;17.60;61.00;;;;;;5061125;28;20040;-71
2021/05/24 06:52:54;;;;;;;3.75;1.30;;;17.60;60.50;;;;;;5061710;28;20036;-71
2021/05/24 06:55:19;;;;;;;3.75;1.20;;;17.60;60.50;;;;;;5041433;28;20188;-72
2021/05/24 06:57:45;;;;;;;3.88;1.42;;;17.60;60.50;;;;;;5062362;28;20016;-71
2021/05/24 07:00:11;;;;;;;3.75;1.55;;;17.70;60.40;;;;;;5059399;28;20067;-71
2021/05/24 07:02:42;;;;;;;3.35;1.40;;;17.70;60.20;;;;;;5061928;28;20060;-72
2021/05/24 07:05:08;;;;;;;3.33;1.15;;;17.70;60.20;;;;;;5057413;28;20082;-72
2021/05/24 07:07:35;;;;;;;3.13;1.10;;;17.80;60.50;;;;;;5057856;28;20094;-72
2021/05/24 07:10:01;;;;;;;2.38;1.10;;;17.90;60.50;;;;;;5067675;28;20143;-72
2021/05/24 07:12:26;;;;;;;3.08;1.27;;;17.90;60.40;;;;;;5056339;28;20128;-72
2021/05/24 07:14:54;;;;;;;2.65;1.02;;;17.90;60.60;;;;;;5059612;28;20047;-73
2021/05/24 07:17:20;;;;;;;2.17;1.05;;;17.90;61.60;;;;;;5059907;28;20031;-72
2021/05/24 07:19:46;;;;;;;2.28;1.10;;;17.90;61.20;;;;;;5053879;28;20060;-72
2021/05/24 07:22:12;;;;;;;2.45;1.23;;;17.80;61.60;;;;;;5060813;28;20029;-73
2021/05/24 07:24:37;;;;;;;2.38;1.10;;;17.80;61.80;;;;;;5058079;28;20045;-72
2021/05/24 07:27:04;;;;;;;2.92;1.30;;;17.80;62.20;;;;;;5064868;28;20028;-72
2021/05/24 07:29:30;;;;;;;3.03;1.50;;;17.70;62.20;;;;;;5046232;28;20038;-72
2021/05/24 07:31:56;;;;;;;3.95;1.40;;;17.60;62.30;;;;;;5059862;28;20032;-72
2021/05/24 07:34:22;;;;;;;4.00;1.20;;;17.60;62.50;;;;;;5065693;28;20123;-72
2021/05/24 07:36:47;;;;;;;2.95;1.33;;;17.60;62.70;;;;;;5063479;28;20360;-72
2021/05/24 07:39:13;;;;;;;1.95;1.05;;;17.50;63.00;;;;;;5061697;28;20451;-73
2021/05/24 07:41:39;;;;;;;2.53;1.27;;;17.50;63.00;;;;;;5062836;28;20367;-72
2021/05/24 07:44:05;;;;;;;4.45;1.15;;;17.60;63.10;;;;;;5057456;28;20140;-72
2021/05/24 07:46:31;;;;;;;2.40;1.20;;;17.50;63.20;;;;;;5065124;28;20051;-73
2021/05/24 07:48:57;;;;;;;3.17;1.35;;;17.50;63.70;;;;;;5062312;28;20220;-70
2021/05/24 07:51:23;;;;;;;2.92;1.20;;;17.50;64.30;;;;;;5067595;28;20124;-69
2021/05/24 07:53:48;;;;;;;3.55;1.50;;;17.50;64.30;;;;;;5064919;28;20063;-73
2021/05/24 07:56:14;;;;;;;2.70;1.38;;;17.50;64.60;;;;;;5066232;28;20093;-70
2021/05/24 07:58:39;;;;;;;3.50;1.38;;;17.60;64.80;;;;;;5061258;28;20036;-71
2021/05/24 08:01:05;;;;;;;3.13;1.27;;;17.50;64.60;;;;;;5062820;28;20032;-70
2021/05/24 08:03:31;;;;;;;5.28;1.58;;;17.50;65.20;;;;;;5063882;28;20060;-71
2021/05/24 08:05:56;;;;;;;2.47;1.05;;;17.60;66.20;;;;;;5066955;28;20028;-70
2021/05/24 08:08:22;;;;;;;4.15;1.27;;;17.60;65.30;;;;;;5065695;28;20090;-71
2021/05/24 08:10:48;;;;;;;2.15;1.17;;;17.60;65.30;;;;;;5064281;28;20078;-71
2021/05/24 08:13:14;;;;;;;3.72;1.30;;;17.60;65.30;;;;;;5055652;28;20028;-72
2021/05/24 08:15:40;;;;;;;5.10;1.58;;;17.60;65.40;;;;;;5026106;28;20056;-70
2021/05/24 08:18:09;;;;;;;1.88;1.20;;;17.50;65.50;;;;;;5055808;28;20033;-72
2021/05/24 08:20:36;;;;;;;4.35;1.80;;;17.50;65.70;;;;;;5055537;28;20075;-73
2021/05/24 08:23:03;;;;;;;4.45;1.63;;;17.50;66.10;;;;;;5057654;28;20036;-72
2021/05/24 08:25:29;;;;;;;3.60;1.58;;;17.40;65.80;;;;;;5055730;28;20029;-71
2021/05/24 08:27:55;;;;;;;4.25;1.75;;;17.40;66.20;;;;;;5062989;28;20017;-72
2021/05/24 08:30:21;;;;;;;3.75;1.60;;;17.40;66.50;;;;;;5043965;28;20123;-75
2021/05/24 08:32:47;;;;;;;5.32;1.65;;;17.40;66.60;;;;;;5064462;28;20107;-74
2021/05/24 08:35:23;;;;;;;4.90;1.65;;;17.40;66.70;;;;;;5059261;28;20160;-75
2021/05/24 08:37:49;;;;;;;3.70;1.70;;;17.40;66.70;;;;;;5063320;28;20082;-74
2021/05/24 08:40:15;;;;;;;4.47;1.90;;;17.40;66.70;;;;;;5064268;28;20490;-74
2021/05/24 08:42:44;;;;;;;3.38;1.50;;;17.40;66.80;;;;;;5052084;28;20032;-73
2021/05/24 08:45:11;;;;;;;4.97;1.65;;;17.40;66.90;;;;;;5035314;28;20048;-72
2021/05/24 08:47:37;;;;;;;4.55;1.73;;;17.40;67.30;;;;;;5065613;28;20035;-73
2021/05/24 08:50:05;;;;;;;3.50;1.63;;;17.40;67.80;;;;;;5063762;28;20625;-73
2021/05/24 08:52:31;;;;;;;4.15;1.70;;;17.40;67.80;;;;;;5067928;28;20115;-71
2021/05/24 08:54:57;;;;;;;3.10;1.60;;;17.40;67.80;;;;;;5066016;28;20032;-70
2021/05/24 08:57:24;;;;;;;5.07;2.10;;;17.40;68.00;;;;;;5070837;28;20036;-71
2021/05/24 08:59:49;;;;;;;3.40;1.80;;;17.50;68.70;;;;;;5064123;28;20071;-71
2021/05/24 09:02:15;;;;;;;4.60;1.95;;;17.50;68.60;;;;;;5050440;28;20361;-71
2021/05/24 09:04:47;;;;;;;4.00;1.75;;;17.60;68.90;;;;;;5037225;28;20033;-70
2021/05/24 09:07:14;;;;;;;5.03;1.80;;;17.60;68.30;;;;;;5064357;28;20115;-70
2021/05/24 09:09:56;;;;;;;7.72;1.85;;;17.60;68.60;;;;;;5060239;28;20021;-71
2021/05/24 09:12:22;;;;;;;5.32;2.10;;;17.60;68.30;;;;;;5061227;28;20550;-71
2021/05/24 09:14:56;;;;;;;5.13;1.98;;;17.50;68.10;;;;;;5053677;28;20032;-70
2021/05/24 09:17:22;;;;;;;3.42;1.77;;;17.30;68.30;;;;;;5063840;28;20035;-71
2021/05/24 09:19:48;;;;;;;7.32;1.80;;;17.30;68.50;;;;;;5058875;28;20463;-72
2021/05/24 09:22:14;;;;;;;4.40;1.70;;;17.20;68.60;;;;;;5062430;28;20140;-70
2021/05/24 09:24:44;;;;;;;3.33;1.60;;;17.20;68.10;;;;;;5068609;28;20099;-75
2021/05/24 09:27:38;;;;;;;4.35;1.83;;;17.10;68.20;;;;;;5068109;28;20120;-74
2021/05/24 09:30:05;;;;;;;3.28;1.67;;;17.00;68.30;;;;;;5065524;28;20036;-74
2021/05/24 09:32:33;;;;;;;4.82;1.77;;;17.00;68.00;;;;;;5066357;28;20036;-70
2021/05/24 09:35:03;;;;;;;2.75;1.20;;;16.90;67.60;;;;;;5055605;28;20440;-72
2021/05/24 09:37:37;;;;;;;2.33;1.42;;;16.80;68.30;;;;;;5066354;28;20033;-72
2021/05/24 09:40:23;;;;;;;4.72;1.60;;;16.90;68.70;;;;;;5066034;28;20028;-71
2021/05/24 09:42:49;;;;;;;3.47;1.60;;;16.90;68.30;;;;;;5061535;28;20028;-70
2021/05/24 09:45:19;;;;;;;3.65;1.88;;;16.90;67.30;;;;;;5059925;28;20059;-71
2021/05/24 09:47:48;;;;;;;3.85;1.65;;;16.90;67.80;;;;;;5061769;28;20056;-71
2021/05/24 09:50:17;;;;;;;4.65;1.98;;;17.00;68.10;;;;;;5045435;28;20054;-71
2021/05/24 09:52:44;;;;;;;4.20;1.67;;;17.00;67.50;;;;;;5059747;28;20024;-71
2021/05/24 09:55:22;;;;;;;6.50;2.35;;;17.00;67.70;;;;;;5063151;28;20547;-72
2021/05/24 09:58:06;;;;;;;4.50;1.70;;;16.90;67.80;;;;;;5053729;28;20038;-72
2021/05/24 10:00:44;;;;;;;3.28;1.50;;;16.90;68.20;;;;;;5065592;28;20072;-72
2021/05/24 10:03:11;;;;;;;4.28;1.80;;;16.90;68.20;;;;;;5060360;28;20043;-73
2021/05/24 10:05:43;;;;;;;4.30;1.92;;;17.00;68.50;;;;;;5065942;28;20158;-72
2021/05/24 10:08:09;;;;;;;3.08;1.70;;;17.00;68.50;;;;;;5059232;28;20050;-72
2021/05/24 10:10:38;;;;;;;4.40;1.70;;;17.10;68.40;;;;;;5055520;28;20444;-72
2021/05/24 10:13:04;;;;;;;3.63;1.90;;;17.20;68.50;;;;;;5054379;28;20056;-72
2021/05/24 10:15:31;;;;;;;3.15;1.88;;;17.20;68.40;;;;;;5040244;28;20433;-72
2021/05/24 10:18:02;;;;;;;2.85;1.60;;;17.20;68.50;;;;;;5061717;28;20339;-72
2021/05/24 10:20:30;;;;;;;5.20;1.80;;;17.30;68.50;;;;;;5062670;28;20052;-71
2021/05/24 10:22:56;;;;;;;4.70;2.00;;;17.20;67.80;;;;;;5057179;28;20102;-71
2021/05/24 10:25:24;;;;;;;5.07;2.00;;;17.10;68.30;;;;;;5065027;28;20032;-72
2021/05/24 10:27:51;;;;;;;3.15;1.58;;;17.00;68.30;;;;;;5046463;28;20936;-71
2021/05/24 10:30:19;;;;;;;14.13;2.15;;;17.00;68.60;;;;;;5058964;28;20036;-72
2021/05/24 10:32:59;;;;;;;5.65;2.10;;;17.00;68.50;;;;;;5061652;28;20490;-72
2021/05/24 10:35:39;;;;;;;4.55;1.77;;;17.00;68.80;;;;;;5065158;28;20371;-72
2021/05/24 10:38:20;;;;;;;4.65;1.90;;;17.00;69.10;;;;;;5067542;28;20911;-72
2021/05/24 10:40:46;;;;;;;4.55;2.22;;;17.10;68.40;;;;;;5062368;28;20042;-73
2021/05/24 10:43:15;;;;;;;5.90;1.98;;;17.20;68.50;;;;;;5065711;28;20032;-71
2021/05/24 10:45:41;;;;;;;4.43;1.80;;;17.40;69.00;;;;;;5057506;28;20028;-72
2021/05/24 10:48:06;;;;;;;5.60;2.10;;;17.60;68.30;;;;;;5060796;28;20110;-72
2021/05/24 10:50:33;;;;;;;3.58;1.50;;;17.80;67.70;;;;;;5057570;28;20580;-72
2021/05/24 10:53:01;;;;;;;2.83;1.73;;;17.90;67.80;;;;;;5062701;28;20104;-77
2021/05/24 10:55:32;;;;;;;4.88;1.90;;;18.10;67.50;;;;;;5063525;28;20481;-72
2021/05/24 10:58:09;;;;;;;3.90;1.80;;;18.20;66.70;;;;;;5064632;28;20031;-75
2021/05/24 11:01:01;;;;;;;3.78;1.85;;;18.30;66.10;;;;;;5052008;28;20033;-74
2021/05/24 11:03:27;;;;;;;4.57;1.98;;;18.10;66.70;;;;;;5063966;28;20467;-72
2021/05/24 11:06:09;;;;;;;4.13;2.13;;;18.10;67.00;;;;;;5046895;28;20090;-76
2021/05/24 11:08:36;;;;;;;3.28;1.63;;;18.00;67.00;;;;;;5055113;28;20107;-75
2021/05/24 11:11:25;;;;;;;3.88;1.80;;;18.00;67.50;;;;;;5061008;28;20047;-74
2021/05/24 11:13:59;;;;;;;2.60;1.55;;;18.00;68.10;;;;;;5052021;28;20036;-73
2021/05/24 11:16:26;;;;;;;4.30;1.50;;;17.80;67.80;;;;;;5052913;28;20053;-73
2021/05/24 11:19:10;;;;;;;3.47;1.40;;;17.70;68.40;;;;;;5052687;28;20467;-72
2021/05/24 11:21:52;;;;;;;2.63;1.60;;;17.70;69.00;;;;;;5057564;28;20063;-70
2021/05/24 11:24:34;;;;;;;3.55;2.10;;;17.80;69.10;;;;;;5062447;28;20028;-72
2021/05/24 11:27:09;;;;;;;3.17;1.63;;;18.00;68.60;;;;;;5051205;28;20034;-74
2021/05/24 11:29:35;;;;;;;2.60;1.40;;;18.00;68.60;;;;;;5055447;28;20035;-73
2021/05/24 11:32:27;;;;;;;3.90;1.48;;;18.20;69.10;;;;;;5067496;28;20032;-73
2021/05/24 11:34:54;;;;;;;2.65;1.50;;;18.40;67.80;;;;;;5050951;28;20609;-73
2021/05/24 11:37:21;;;;;;;3.65;1.48;;;18.50;67.70;;;;;;5056701;28;20103;-73
2021/05/24 11:39:56;;;;;;;3.33;1.40;;;18.70;67.90;;;;;;5058026;28;20362;-73
2021/05/24 11:42:29;;;;;;;3.30;1.45;;;18.70;67.60;;;;;;5050543;28;20029;-75
2021/05/24 11:44:59;;;;;;;2.35;1.10;;;18.80;67.50;;;;;;5054075;28;20147;-72
2021/05/24 11:47:26;;;;;;;3.75;1.77;;;18.90;67.00;;;;;;5054440;28;20080;-70
2021/05/24 11:50:03;;;;;;;1.80;1.10;;;18.90;65.20;;;;;;5061947;28;20075;-72
2021/05/24 11:52:33;;;;;;;1.67;0.95;;;18.80;65.50;;;;;;5064086;28;20078;-72
2021/05/24 11:54:59;;;;;;;4.32;1.35;;;18.70;66.30;;;;;;5064387;28;20435;-72
2021/05/24 11:57:30;;;;;;;3.53;1.25;;;18.90;66.40;;;;;;5059007;28;20052;-75
2021/05/24 11:59:55;;;;;;;2.85;1.48;;;19.00;65.90;;;;;;5060829;28;20530;-74
2021/05/24 12:02:23;;;;;;;3.55;1.48;;;19.10;64.70;;;;;;5052275;28;20174;-74
2021/05/24 12:04:50;;;;;;;2.03;1.30;;;19.20;65.10;;;;;;5062278;28;20079;-75
2021/05/24 12:07:18;;;;;;;3.72;1.10;;;19.40;64.80;;;;;;5064157;28;20021;-74
2021/05/24 12:09:52;;;;;;;2.25;1.02;;;19.50;62.50;;;;;;5047312;28;20518;-74
2021/05/24 12:12:22;;;;;;;1.75;1.08;;;19.40;63.20;;;;;;5055129;28;20478;-75
2021/05/24 12:14:51;;;;;;;1.75;1.08;;;19.30;62.90;;;;;;5054635;28;20071;-73
2021/05/24 12:17:20;;;;;;;1.45;0.77;;;19.20;62.80;;;;;;5056142;28;20028;-74
2021/05/24 12:19:48;;;;;;;1.02;0.90;;;19.00;62.90;;;;;;5055638;28;20048;-71
2021/05/24 12:22:16;;;;;;;2.35;1.00;;;18.80;63.00;;;;;;5056791;28;20029;-73
2021/05/24 12:24:44;;;;;;;1.42;1.00;;;18.70;63.40;;;;;;5057894;28;20257;-72
2021/05/24 12:27:11;;;;;;;1.40;1.20;;;18.50;62.80;;;;;;5053598;28;20053;-73
2021/05/24 12:30:14;;;;;;;2.22;1.20;;;18.30;64.30;;;;;;5052827;28;20071;-70
2021/05/24 12:32:41;;;;;;;1.85;1.08;;;18.10;65.40;;;;;;5056557;28;20498;-70
2021/05/24 12:35:10;;;;;;;1.75;1.05;;;18.10;65.00;;;;;;5055882;28;20516;-70
2021/05/24 12:37:38;;;;;;;2.95;1.27;;;18.00;65.70;;;;;;5052464;28;20154;-71
2021/05/24 12:40:10;;;;;;;1.50;1.00;;;18.10;65.80;;;;;;5057559;28;20040;-73
2021/05/24 12:42:40;;;;;;;1.95;1.10;;;18.20;65.10;;;;;;5051318;28;22905;-71
2021/05/24 12:45:11;;;;;;;1.85;1.05;;;18.30;64.40;;;;;;5035371;28;20037;-74
2021/05/24 12:47:37;;;;;;;1.95;1.00;;;18.40;64.70;;;;;;5058683;28;20758;-74
2021/05/24 12:50:10;;;;;;;3.53;1.65;;;18.40;65.40;;;;;;5053899;28;20059;-72